createdAt,value
2023-04-30T00:00:08.508Z,3.70
2023-04-30T00:02:38.027Z,4.10
2023-04-30T00:05:06.015Z,4.38
2023-04-30T00:07:33.866Z,3.90
2023-04-30T00:10:01.479Z,4.57
2023-04-30T00:12:29.072Z,4.22
2023-04-30T00:14:56.604Z,4.40
2023-04-30T00:17:24.199Z,4.20
2023-04-30T00:19:51.800Z,3.80
2023-04-30T00:22:19.332Z,3.72
2023-04-30T00:24:46.881Z,4.00
2023-04-30T00:27:14.437Z,4.47
2023-04-30T00:29:41.996Z,4.13
2023-04-30T00:32:10.624Z,4.00
2023-04-30T00:34:38.220Z,3.97
2023-04-30T00:37:05.775Z,3.92
2023-04-30T00:39:33.327Z,4.22
2023-04-30T00:42:00.911Z,4.60
2023-04-30T00:44:28.399Z,4.30
2023-04-30T00:46:55.943Z,4.38
2023-04-30T00:49:23.635Z,4.55
2023-04-30T00:51:51.699Z,4.00
2023-04-30T00:54:21.251Z,5.03
2023-04-30T00:56:49.168Z,4.43
2023-04-30T00:59:16.935Z,4.18
2023-04-30T01:01:44.677Z,4.47
2023-04-30T01:04:12.705Z,4.40
2023-04-30T01:06:40.707Z,4.68
2023-04-30T01:09:08.366Z,4.07
2023-04-30T01:11:42.754Z,4.35
2023-04-30T01:14:27.419Z,4.18
2023-04-30T01:17:15.190Z,4.20
2023-04-30T01:19:43.690Z,4.28
2023-04-30T01:22:26.614Z,4.78
2023-04-30T01:24:54.971Z,4.18
2023-04-30T01:27:41.302Z,4.32
2023-04-30T01:30:09.762Z,4.82
2023-04-30T01:32:37.358Z,5.30
2023-04-30T01:35:05.286Z,4.90
2023-04-30T01:37:36.974Z,4.68
2023-04-30T01:40:23.229Z,4.70
2023-04-30T01:43:13.106Z,5.13
2023-04-30T01:45:43.805Z,5.07
2023-04-30T01:48:20.002Z,5.38
2023-04-30T01:50:52.767Z,4.72
2023-04-30T01:53:32.645Z,4.65
2023-04-30T01:56:04.092Z,4.97
2023-04-30T02:00:59.464Z,4.90
2023-04-30T02:03:27.330Z,5.20
2023-04-30T02:05:55.757Z,5.03
2023-04-30T02:08:23.466Z,5.82
2023-04-30T02:10:51.043Z,5.05
2023-04-30T02:13:18.662Z,4.82
2023-04-30T02:15:46.363Z,4.97
2023-04-30T02:18:13.911Z,5.13
2023-04-30T02:20:41.562Z,5.63
2023-04-30T02:23:09.766Z,4.80
2023-04-30T02:25:38.994Z,5.28
2023-04-30T02:28:07.042Z,4.97
2023-04-30T02:30:34.548Z,5.20
2023-04-30T02:33:03.394Z,5.18
2023-04-30T02:35:31.080Z,5.40
2023-04-30T02:37:58.634Z,5.65
2023-04-30T02:40:26.442Z,5.47
2023-04-30T02:42:56.144Z,5.20
2023-04-30T02:45:23.766Z,5.55
2023-04-30T02:47:51.465Z,6.30
2023-04-30T02:50:19.023Z,5.88
2023-04-30T02:52:47.242Z,5.43
2023-04-30T02:55:14.945Z,5.28
2023-04-30T02:57:42.561Z,5.20
2023-04-30T03:00:10.389Z,5.82
2023-04-30T03:02:38.105Z,5.60
2023-04-30T03:05:06.113Z,5.43
2023-04-30T03:07:33.690Z,5.70
2023-04-30T03:10:01.196Z,5.70
2023-04-30T03:12:28.747Z,5.85
2023-04-30T03:14:56.255Z,6.10
2023-04-30T03:17:24.705Z,5.60
2023-04-30T03:19:52.378Z,6.18
2023-04-30T03:22:23.561Z,6.13
2023-04-30T03:24:51.156Z,5.97
2023-04-30T03:27:18.685Z,6.25
2023-04-30T03:29:46.386Z,6.35
2023-04-30T03:32:13.940Z,6.05
2023-04-30T03:34:41.462Z,6.63
2023-04-30T03:37:09.022Z,7.15
2023-04-30T03:39:36.571Z,6.32
2023-04-30T03:42:04.184Z,6.75
2023-04-30T03:44:31.795Z,6.50
2023-04-30T03:46:59.351Z,6.93
2023-04-30T03:49:26.941Z,7.32
2023-04-30T03:51:54.837Z,7.10
2023-04-30T03:54:22.369Z,6.93
2023-04-30T03:56:49.994Z,7.07
2023-04-30T03:59:18.224Z,7.00
2023-04-30T04:01:45.964Z,6.22
2023-04-30T04:04:14.872Z,6.95
2023-04-30T04:06:42.639Z,7.05
2023-04-30T04:09:10.313Z,6.82
2023-04-30T04:11:37.843Z,6.55
2023-04-30T04:14:05.535Z,7.03
2023-04-30T04:16:33.160Z,7.05
2023-04-30T04:19:00.944Z,7.18
2023-04-30T04:21:29.064Z,6.38
2023-04-30T04:23:57.878Z,7.03
2023-04-30T04:26:25.812Z,6.65
2023-04-30T04:28:53.465Z,6.75
2023-04-30T04:31:22.448Z,6.95
2023-04-30T04:33:50.063Z,6.85
2023-04-30T04:36:17.890Z,7.13
2023-04-30T04:38:45.631Z,6.60
2023-04-30T04:41:13.169Z,6.90
2023-04-30T04:43:41.135Z,6.20
2023-04-30T04:46:10.676Z,7.20
2023-04-30T04:48:39.898Z,6.85
2023-04-30T04:51:07.529Z,6.28
2023-04-30T04:53:36.494Z,6.60
2023-04-30T04:56:04.092Z,6.10
2023-04-30T04:58:31.792Z,6.57
2023-04-30T05:01:00.044Z,6.53
2023-04-30T05:03:28.728Z,6.88
2023-04-30T05:05:56.478Z,6.90
2023-04-30T05:08:24.073Z,6.32
2023-04-30T05:10:51.794Z,6.47
2023-04-30T05:13:19.304Z,6.50
2023-04-30T05:15:46.854Z,6.70
2023-04-30T05:18:14.487Z,6.53
2023-04-30T05:20:42.020Z,6.80
2023-04-30T05:23:09.580Z,6.63
2023-04-30T05:25:37.212Z,6.68
2023-04-30T05:28:05.120Z,6.50
2023-04-30T05:30:33.030Z,6.07
2023-04-30T05:33:00.696Z,6.53
2023-04-30T05:35:28.324Z,6.20
2023-04-30T05:37:55.930Z,6.38
2023-04-30T05:40:23.469Z,6.78
2023-04-30T05:42:50.992Z,6.80
2023-04-30T05:45:18.624Z,6.18
2023-04-30T05:47:46.295Z,6.70
2023-04-30T05:50:13.862Z,6.35
2023-04-30T05:52:41.412Z,6.28
2023-04-30T05:55:09.658Z,5.82
2023-04-30T05:57:37.286Z,6.18
2023-04-30T06:00:06.930Z,6.05
2023-04-30T06:02:39.884Z,6.40
2023-04-30T06:05:08.892Z,6.13
2023-04-30T06:07:36.453Z,6.28
2023-04-30T06:10:04.203Z,6.10
2023-04-30T06:12:31.974Z,6.15
2023-04-30T06:14:59.566Z,5.68
2023-04-30T06:17:27.159Z,5.93
2023-04-30T06:19:55.050Z,6.38
2023-04-30T06:22:22.774Z,6.25
2023-04-30T06:24:50.547Z,5.75
2023-04-30T06:27:18.059Z,6.88
2023-04-30T06:29:45.603Z,6.10
2023-04-30T06:32:13.139Z,5.88
2023-04-30T06:34:40.908Z,5.60
2023-04-30T06:37:08.516Z,6.10
2023-04-30T06:39:36.050Z,5.32
2023-04-30T06:42:03.924Z,5.35
2023-04-30T06:44:31.674Z,5.88
2023-04-30T06:46:59.401Z,5.82
2023-04-30T06:49:26.933Z,5.75
2023-04-30T06:51:56.245Z,5.57
2023-04-30T06:54:23.845Z,5.78
2023-04-30T06:56:51.424Z,5.65
2023-04-30T06:59:18.943Z,5.68
2023-04-30T07:01:46.620Z,5.50
2023-04-30T07:04:14.209Z,5.68
2023-04-30T07:06:42.402Z,5.47
2023-04-30T07:09:10.194Z,4.75
2023-04-30T07:11:37.714Z,5.18
2023-04-30T07:14:05.426Z,5.40
2023-04-30T07:16:33.266Z,4.97
2023-04-30T07:19:01.208Z,5.68
2023-04-30T07:21:28.831Z,5.30
2023-04-30T07:23:56.339Z,4.60
2023-04-30T07:26:25.722Z,4.95
2023-04-30T07:28:53.319Z,5.40
2023-04-30T07:31:21.012Z,5.07
2023-04-30T07:33:50.477Z,5.10
2023-04-30T07:36:18.070Z,5.35
2023-04-30T07:38:45.599Z,5.10
2023-04-30T07:41:13.116Z,5.13
2023-04-30T07:43:40.689Z,4.95
2023-04-30T07:46:08.489Z,4.70
2023-04-30T07:48:36.544Z,4.82
2023-04-30T07:51:04.841Z,4.65
2023-04-30T07:53:32.372Z,4.70
2023-04-30T07:55:59.862Z,4.97
2023-04-30T07:58:27.459Z,4.97
2023-04-30T08:00:55.041Z,5.00
2023-04-30T08:03:22.691Z,5.53
2023-04-30T08:05:50.240Z,4.90
2023-04-30T08:08:17.762Z,4.47
2023-04-30T08:10:45.632Z,5.35
2023-04-30T08:13:13.224Z,5.20
2023-04-30T08:15:40.858Z,4.55
2023-04-30T08:18:08.461Z,5.22
2023-04-30T08:20:37.971Z,5.93
2023-04-30T08:23:06.391Z,5.72
2023-04-30T08:25:34.497Z,5.78
2023-04-30T08:28:02.036Z,5.90
2023-04-30T08:30:29.597Z,6.18
2023-04-30T08:32:57.883Z,5.50
2023-04-30T08:35:25.706Z,5.43
2023-04-30T08:37:54.036Z,5.80
2023-04-30T08:40:23.573Z,5.68
2023-04-30T08:42:59.387Z,5.82
2023-04-30T08:45:27.184Z,5.60
2023-04-30T08:47:55.679Z,5.28
2023-04-30T08:50:23.264Z,4.53
2023-04-30T08:52:50.770Z,4.85
2023-04-30T08:55:18.288Z,4.65
2023-04-30T08:57:45.854Z,4.82
2023-04-30T09:00:13.756Z,4.38
2023-04-30T09:02:42.554Z,4.30
2023-04-30T09:05:14.134Z,4.10
2023-04-30T09:07:49.002Z,4.13
2023-04-30T09:10:23.758Z,4.10
2023-04-30T09:13:01.856Z,3.40
2023-04-30T09:15:29.946Z,3.63
2023-04-30T09:18:08.050Z,4.05
2023-04-30T09:20:36.294Z,3.55
2023-04-30T09:23:12.542Z,3.63
2023-04-30T09:25:43.478Z,3.50
2023-04-30T09:28:11.753Z,3.87
2023-04-30T09:30:42.377Z,3.45
2023-04-30T09:33:12.195Z,3.30
2023-04-30T09:35:41.832Z,3.10
2023-04-30T09:38:25.472Z,3.17
2023-04-30T09:40:53.074Z,3.35
2023-04-30T09:43:20.704Z,3.22
2023-04-30T09:45:49.634Z,3.10
2023-04-30T09:48:18.083Z,3.10
2023-04-30T09:50:47.196Z,3.40
2023-04-30T09:53:15.058Z,3.10
2023-04-30T09:55:44.003Z,2.83
2023-04-30T09:58:12.328Z,3.55
2023-04-30T10:00:40.253Z,3.85
2023-04-30T10:03:09.011Z,3.92
2023-04-30T10:05:42.821Z,3.80
2023-04-30T10:08:19.693Z,3.67
2023-04-30T10:10:48.375Z,3.88
2023-04-30T10:13:18.899Z,4.07
2023-04-30T10:15:52.793Z,4.07
2023-04-30T10:18:29.890Z,3.65
2023-04-30T10:20:57.781Z,4.20
2023-04-30T10:23:25.759Z,3.60
2023-04-30T10:25:54.034Z,3.50
2023-04-30T10:28:21.945Z,3.05
2023-04-30T10:30:51.490Z,3.70
2023-04-30T10:33:26.813Z,2.95
2023-04-30T10:35:57.532Z,3.72
2023-04-30T10:38:29.671Z,3.38
2023-04-30T10:41:01.363Z,3.30
2023-04-30T10:43:31.180Z,4.03
2023-04-30T10:45:58.994Z,2.70
2023-04-30T10:48:27.386Z,2.60
2023-04-30T10:50:59.650Z,2.50
2023-04-30T10:53:31.213Z,2.30
2023-04-30T10:55:59.630Z,2.70
2023-04-30T10:58:47.735Z,2.80
2023-04-30T11:01:17.758Z,2.72
2023-04-30T11:04:05.241Z,2.72
2023-04-30T11:06:51.331Z,2.53
2023-04-30T11:09:19.214Z,2.53
2023-04-30T11:11:50.282Z,3.00
2023-04-30T11:14:21.447Z,2.40
2023-04-30T11:16:54.149Z,2.72
2023-04-30T11:19:24.926Z,2.33
2023-04-30T11:22:04.822Z,2.15
2023-04-30T11:24:51.028Z,2.10
2023-04-30T11:27:23.069Z,2.20
2023-04-30T11:29:54.704Z,2.20
2023-04-30T11:32:23.662Z,2.28
2023-04-30T11:34:51.729Z,2.00
2023-04-30T11:37:20.653Z,1.92
2023-04-30T11:39:48.865Z,1.85
2023-04-30T11:42:17.717Z,1.60
2023-04-30T11:44:45.495Z,2.10
2023-04-30T11:47:16.202Z,2.22
2023-04-30T11:49:44.366Z,2.73
2023-04-30T11:52:14.053Z,3.03
2023-04-30T11:54:41.600Z,2.92
2023-04-30T11:57:09.317Z,3.58
2023-04-30T11:59:43.535Z,2.60
2023-04-30T12:02:15.155Z,2.03
2023-04-30T12:07:10.269Z,2.00
2023-04-30T12:10:07.259Z,2.30
2023-04-30T12:12:37.922Z,2.75
2023-04-30T12:15:18.531Z,3.45
2023-04-30T12:17:46.868Z,2.90
2023-04-30T12:20:15.175Z,2.60
2023-04-30T12:22:43.577Z,2.97
2023-04-30T12:25:15.755Z,3.22
2023-04-30T12:27:45.994Z,3.20
2023-04-30T12:30:13.954Z,2.95
2023-04-30T12:32:42.374Z,2.97
2023-04-30T12:35:13.869Z,2.63
2023-04-30T12:37:45.402Z,3.55
2023-04-30T12:40:14.060Z,2.60
2023-04-30T12:42:45.379Z,4.07
2023-04-30T12:45:13.516Z,2.80
2023-04-30T12:47:42.087Z,3.13
2023-04-30T12:50:12.883Z,2.40
2023-04-30T12:52:40.946Z,3.53
2023-04-30T12:55:18.055Z,2.47
2023-04-30T12:58:07.509Z,3.38
2023-04-30T13:00:48.233Z,2.00
2023-04-30T13:03:17.317Z,2.42
2023-04-30T13:05:52.013Z,2.70
2023-04-30T13:08:20.688Z,2.10
2023-04-30T13:10:48.976Z,2.10
2023-04-30T13:13:17.510Z,2.28
2023-04-30T13:15:45.226Z,2.63
2023-04-30T13:18:14.292Z,2.20
2023-04-30T13:20:43.599Z,2.13
2023-04-30T13:23:14.489Z,1.95
2023-04-30T13:25:42.588Z,2.10
2023-04-30T13:28:10.314Z,2.15
2023-04-30T13:30:38.034Z,1.80
2023-04-30T13:33:05.650Z,1.70
2023-04-30T13:35:33.204Z,2.50
2023-04-30T13:38:01.143Z,2.25
2023-04-30T13:40:28.800Z,1.92
2023-04-30T13:42:56.368Z,1.88
2023-04-30T13:45:23.924Z,2.20
2023-04-30T13:47:51.662Z,1.77
2023-04-30T13:50:19.278Z,2.00
2023-04-30T13:52:47.032Z,2.00
2023-04-30T13:55:14.565Z,1.80
2023-04-30T13:57:42.080Z,1.75
2023-04-30T14:00:10.697Z,1.60
2023-04-30T14:02:38.375Z,2.10
2023-04-30T14:05:07.002Z,1.60
2023-04-30T14:07:35.323Z,1.70
2023-04-30T14:10:02.890Z,1.80
2023-04-30T14:12:30.640Z,1.77
2023-04-30T14:14:58.623Z,2.00
2023-04-30T14:17:27.635Z,1.77
2023-04-30T14:19:55.252Z,2.28
2023-04-30T14:22:24.297Z,1.70
2023-04-30T14:24:53.304Z,1.92
2023-04-30T14:27:21.879Z,2.25
2023-04-30T14:29:49.522Z,1.92
2023-04-30T14:32:17.109Z,2.03
2023-04-30T14:34:45.056Z,3.63
2023-04-30T14:37:12.680Z,2.80
2023-04-30T14:39:40.222Z,2.17
2023-04-30T14:42:08.770Z,2.00
2023-04-30T14:44:37.762Z,2.08
2023-04-30T14:47:05.290Z,2.40
2023-04-30T14:49:32.889Z,2.17
2023-04-30T14:52:00.519Z,1.85
2023-04-30T14:54:28.045Z,2.03
2023-04-30T14:56:55.783Z,1.77
2023-04-30T14:59:23.502Z,1.85
2023-04-30T15:01:51.228Z,2.10
2023-04-30T15:04:18.946Z,1.70
2023-04-30T15:06:47.848Z,2.03
2023-04-30T15:09:15.606Z,3.10
2023-04-30T15:11:43.118Z,2.55
2023-04-30T15:14:11.612Z,2.65
2023-04-30T15:16:39.373Z,2.30
2023-04-30T15:19:07.551Z,2.80
2023-04-30T15:21:35.137Z,2.10
2023-04-30T15:24:02.848Z,2.78
2023-04-30T15:26:30.386Z,2.28
2023-04-30T15:28:57.930Z,2.00
2023-04-30T15:31:25.626Z,2.08
2023-04-30T15:33:53.269Z,2.15
2023-04-30T15:36:23.266Z,2.25
2023-04-30T15:38:51.118Z,2.15
2023-04-30T15:41:18.905Z,2.20
2023-04-30T15:43:46.413Z,2.70
2023-04-30T15:46:14.215Z,2.15
2023-04-30T15:48:41.752Z,2.30
2023-04-30T15:51:09.326Z,2.20
2023-04-30T15:53:36.928Z,2.15
2023-04-30T15:56:04.849Z,2.00
2023-04-30T15:58:32.404Z,2.75
2023-04-30T16:01:01.207Z,2.30
2023-04-30T16:03:29.048Z,2.42
2023-04-30T16:05:56.754Z,2.08
2023-04-30T16:08:24.629Z,3.45
2023-04-30T16:10:52.417Z,2.35
2023-04-30T16:13:19.987Z,2.30
2023-04-30T16:15:47.563Z,2.30
2023-04-30T16:18:15.173Z,2.15
2023-04-30T16:20:43.116Z,2.33
2023-04-30T16:23:10.678Z,2.33
2023-04-30T16:25:38.225Z,2.08
2023-04-30T16:28:05.896Z,2.00
2023-04-30T16:30:33.828Z,2.63
2023-04-30T16:33:01.376Z,2.30
2023-04-30T16:35:30.055Z,2.15
2023-04-30T16:37:57.774Z,2.13
2023-04-30T16:40:25.401Z,2.13
2023-04-30T16:42:52.929Z,2.22
2023-04-30T16:45:20.782Z,2.28
2023-04-30T16:47:49.598Z,2.22
2023-04-30T16:50:17.326Z,2.17
2023-04-30T16:52:45.316Z,2.13
2023-04-30T16:55:13.149Z,2.53
2023-04-30T16:57:41.152Z,2.50
2023-04-30T17:00:11.566Z,2.63
2023-04-30T17:02:40.785Z,2.65
2023-04-30T17:05:11.243Z,3.08
2023-04-30T17:07:38.899Z,2.30
2023-04-30T17:10:07.208Z,2.63
2023-04-30T17:12:34.764Z,2.55
2023-04-30T17:15:02.341Z,2.70
2023-04-30T17:17:30.249Z,2.90
2023-04-30T17:19:58.283Z,2.72
2023-04-30T17:22:26.188Z,3.95
2023-04-30T17:24:53.750Z,2.83
2023-04-30T17:27:21.311Z,2.70
2023-04-30T17:29:48.831Z,2.60
2023-04-30T17:32:17.640Z,2.50
2023-04-30T17:34:45.441Z,2.53
2023-04-30T17:37:12.947Z,2.45
2023-04-30T17:39:40.515Z,2.65
2023-04-30T17:42:08.177Z,2.60
2023-04-30T17:44:35.868Z,5.32
2023-04-30T17:47:03.477Z,5.00
2023-04-30T17:49:30.981Z,3.17
2023-04-30T17:52:00.890Z,2.38
2023-04-30T17:54:31.510Z,2.70
2023-04-30T17:56:59.069Z,2.97
2023-04-30T17:59:28.592Z,2.78
2023-04-30T18:01:56.295Z,2.65
2023-04-30T18:04:23.945Z,2.65
2023-04-30T18:06:51.936Z,2.47
2023-04-30T18:09:19.495Z,3.80
2023-04-30T18:11:47.062Z,3.15
2023-04-30T18:14:14.949Z,3.30
2023-04-30T18:16:42.563Z,2.92
2023-04-30T18:19:10.105Z,3.25
2023-04-30T18:21:37.945Z,3.03
2023-04-30T18:24:05.788Z,3.25
2023-04-30T18:26:33.352Z,4.22
2023-04-30T18:29:00.887Z,3.72
2023-04-30T18:31:28.680Z,2.78
2023-04-30T18:33:56.400Z,3.40
2023-04-30T18:36:23.952Z,3.30
2023-04-30T18:38:51.936Z,4.13
2023-04-30T18:41:20.991Z,5.20
2023-04-30T18:43:48.870Z,4.82
2023-04-30T18:46:16.566Z,4.95
2023-04-30T18:48:44.120Z,4.10
2023-04-30T18:51:11.648Z,4.90
2023-04-30T18:53:39.197Z,3.75
2023-04-30T18:56:07.377Z,4.60
2023-04-30T18:58:34.872Z,3.38
2023-04-30T19:01:02.422Z,3.53
2023-04-30T19:03:30.796Z,2.70
2023-04-30T19:05:58.658Z,2.88
2023-04-30T19:08:26.304Z,3.00
2023-04-30T19:10:55.788Z,3.10
2023-04-30T19:13:23.644Z,3.30
2023-04-30T19:15:52.875Z,3.70
2023-04-30T19:18:21.624Z,3.05
2023-04-30T19:20:57.024Z,3.40
2023-04-30T19:23:24.657Z,3.42
2023-04-30T19:25:52.178Z,3.10
2023-04-30T19:28:19.750Z,2.90
2023-04-30T19:30:47.352Z,3.22
2023-04-30T19:33:14.916Z,3.28
2023-04-30T19:35:42.500Z,4.18
2023-04-30T19:38:10.119Z,3.45
2023-04-30T19:40:37.701Z,3.38
2023-04-30T19:43:05.284Z,4.13
2023-04-30T19:45:32.799Z,3.60
2023-04-30T19:48:00.353Z,3.40
2023-04-30T19:50:27.943Z,3.28
2023-04-30T19:52:55.695Z,3.30
2023-04-30T19:55:23.365Z,3.00
2023-04-30T19:57:52.055Z,2.85
2023-04-30T20:00:19.613Z,3.22
2023-04-30T20:02:47.658Z,3.78
2023-04-30T20:05:15.379Z,5.35
2023-04-30T20:07:42.999Z,7.70
2023-04-30T20:10:10.942Z,6.40
2023-04-30T20:12:38.446Z,4.05
2023-04-30T20:15:06.208Z,3.40
2023-04-30T20:17:34.161Z,3.72
2023-04-30T20:20:01.765Z,3.60
2023-04-30T20:22:29.425Z,3.90
2023-04-30T20:24:57.012Z,3.28
2023-04-30T20:27:25.522Z,3.03
2023-04-30T20:29:53.579Z,3.00
2023-04-30T20:32:21.301Z,3.40
2023-04-30T20:34:48.952Z,3.25
2023-04-30T20:37:16.477Z,3.45
2023-04-30T20:39:44.023Z,3.10
2023-04-30T20:42:11.700Z,3.20
2023-04-30T20:44:39.204Z,3.30
2023-04-30T20:47:08.732Z,3.15
2023-04-30T20:49:36.414Z,4.57
2023-04-30T20:52:04.383Z,4.88
2023-04-30T20:54:31.985Z,3.75
2023-04-30T20:56:59.505Z,3.60
2023-04-30T20:59:27.120Z,3.55
2023-04-30T21:01:54.668Z,3.47
2023-04-30T21:04:22.273Z,3.45
2023-04-30T21:06:50.140Z,2.97
2023-04-30T21:09:17.775Z,3.65
2023-04-30T21:11:45.407Z,3.08
2023-04-30T21:14:12.922Z,3.88
2023-04-30T21:16:43.744Z,3.85
2023-04-30T21:19:11.318Z,3.40
2023-04-30T21:21:38.856Z,2.70
2023-04-30T21:24:07.388Z,3.50
2023-04-30T21:26:35.000Z,3.50
2023-04-30T21:29:03.005Z,3.90
2023-04-30T21:31:30.685Z,3.00
2023-04-30T21:33:58.606Z,3.15
2023-04-30T21:36:26.946Z,3.03
2023-04-30T21:38:55.414Z,3.40
2023-04-30T21:41:24.484Z,3.13
2023-04-30T21:43:52.057Z,3.08
2023-04-30T21:46:19.945Z,3.13
2023-04-30T21:48:48.198Z,3.38
2023-04-30T21:51:17.312Z,3.25
2023-04-30T21:53:45.486Z,3.30
2023-04-30T21:56:13.531Z,3.05
2023-04-30T21:58:41.172Z,3.20
2023-04-30T22:01:08.780Z,3.30
2023-04-30T22:03:36.449Z,3.15
2023-04-30T22:06:04.232Z,3.30
2023-04-30T22:08:31.803Z,3.20
2023-04-30T22:11:00.286Z,2.90
2023-04-30T22:13:28.324Z,3.40
2023-04-30T22:15:56.031Z,3.13
2023-04-30T22:18:24.341Z,3.33
2023-04-30T22:20:52.409Z,2.80
2023-04-30T22:23:23.476Z,2.97
2023-04-30T22:25:51.013Z,3.08
2023-04-30T22:28:20.221Z,2.83
2023-04-30T22:30:47.745Z,3.30
2023-04-30T22:33:15.444Z,2.88
2023-04-30T22:35:43.101Z,3.50
2023-04-30T22:38:11.967Z,3.08
2023-04-30T22:40:39.759Z,3.42
2023-04-30T22:43:07.366Z,2.90
2023-04-30T22:45:38.120Z,2.90
2023-04-30T22:48:05.967Z,3.00
2023-04-30T22:50:33.719Z,3.03
2023-04-30T22:53:01.374Z,2.95
2023-04-30T22:55:29.345Z,3.30
2023-04-30T22:57:59.676Z,2.85
2023-04-30T23:00:27.716Z,3.30
2023-04-30T23:02:55.543Z,3.13
2023-04-30T23:05:23.190Z,3.13
2023-04-30T23:07:51.123Z,2.75
2023-04-30T23:10:18.668Z,3.25
2023-04-30T23:12:46.277Z,2.97
2023-04-30T23:15:14.254Z,2.80
2023-04-30T23:17:41.786Z,3.30
2023-04-30T23:20:09.708Z,3.00
2023-04-30T23:22:37.258Z,3.20
2023-04-30T23:25:05.278Z,3.20
2023-04-30T23:27:33.850Z,3.15
2023-04-30T23:30:01.420Z,3.20
2023-04-30T23:32:29.108Z,3.10
2023-04-30T23:34:56.690Z,3.17
2023-04-30T23:37:24.251Z,3.17
2023-04-30T23:39:51.828Z,3.42
2023-04-30T23:42:19.364Z,3.35
2023-04-30T23:44:46.986Z,3.00
2023-04-30T23:47:14.583Z,3.17
2023-04-30T23:49:44.037Z,3.65
2023-04-30T23:52:14.352Z,3.00
2023-04-30T23:54:41.946Z,3.20
2023-04-30T23:57:10.189Z,3.45
2023-04-30T23:59:38.049Z,3.20
